Time;durP1;ratioP1;P1;durP2;ratioP2;P2;SDS_P1;SDS_P2;PMS_P1;PMS_P2;Temp;Humidity;BMP_temperature;BMP_pressure;BME280_temperature;BME280_humidity;BME280_pressure;Samples;Min_cycle;Max_cycle;Signal;HPM_P1;HPM_P2
2022/01/06 00:00:29;;;;;;;4.25;1.02;;;8.30;59.40;;;6.65;65.37;99969.19;8389876;28;20115;-83
2022/01/06 00:04:51;;;;;;;2.78;1.73;;;8.40;59.40;;;6.67;65.67;99967.38;8394607;28;20115;-83
2022/01/06 00:09:17;;;;;;;1.63;1.00;;;8.30;59.30;;;6.68;65.58;99983.75;8375323;28;20032;-83
2022/01/06 00:18:19;;;;;;;3.08;0.82;;;8.30;59.40;;;6.65;65.01;99975.22;8394457;28;20469;-83
2022/01/06 00:27:21;;;;;;;1.65;0.90;;;8.30;59.30;;;6.65;65.35;99995.13;8381522;28;20024;-83
2022/01/06 00:31:42;;;;;;;4.60;1.63;;;8.10;59.20;;;6.63;65.45;99997.78;8386494;28;20119;-83
2022/01/06 00:36:04;;;;;;;3.63;0.82;;;8.30;59.20;;;6.68;65.52;100020.09;8388539;28;20119;-83
2022/01/06 00:40:26;;;;;;;1.58;1.00;;;8.30;59.20;;;6.65;65.07;100021.91;8395402;28;20127;-83
2022/01/06 00:44:47;;;;;;;2.50;1.15;;;8.40;59.20;;;6.63;65.20;100028.91;8404659;28;20158;-82
2022/01/06 00:49:09;;;;;;;5.35;1.30;;;8.30;59.20;;;6.61;65.31;100024.72;8394350;28;20040;-83
2022/01/06 00:53:31;;;;;;;3.95;0.93;;;8.30;59.20;;;6.66;64.99;100035.72;8407178;28;20123;-83
2022/01/06 00:57:55;;;;;;;1.77;1.40;;;8.30;59.30;;;6.62;65.68;100036.81;8386513;28;20119;-83
2022/01/06 01:02:17;;;;;;;4.25;0.85;;;8.30;59.20;;;6.48;65.51;100034.03;8405285;28;20119;-83
2022/01/06 01:06:39;;;;;;;1.27;0.80;;;8.20;59.30;;;6.61;65.36;100066.22;8368745;28;20043;-83
2022/01/06 01:11:01;;;;;;;2.70;1.85;;;8.10;59.30;;;6.47;65.47;100087.66;8408763;28;20115;-82
2022/01/06 01:15:23;;;;;;;0.98;0.82;;;8.10;59.10;;;6.10;65.68;100073.88;8408482;28;20115;-82
2022/01/06 01:19:45;;;;;;;1.42;0.77;;;8.10;59.10;;;6.20;65.00;100126.94;8410385;28;20127;-82
2022/01/06 01:24:07;;;;;;;1.38;0.85;;;7.90;59.10;;;5.93;65.51;100117.84;8386560;28;20131;-82
2022/01/06 01:28:33;;;;;;;1.85;0.80;;;7.80;59.20;;;5.88;65.24;100130.16;8393422;28;20054;-82
2022/01/06 01:32:56;;;;;;;0.93;0.60;;;7.70;59.30;;;5.80;65.08;100145.22;8381800;28;20124;-82
2022/01/06 01:37:18;;;;;;;1.10;0.73;;;7.60;59.40;;;5.89;65.28;100175.91;8379204;28;20119;-82
2022/01/06 01:41:40;;;;;;;2.50;1.20;;;7.50;59.50;;;5.66;65.58;100158.78;8402810;28;20115;-82
2022/01/06 01:46:12;;;;;;;1.58;0.90;;;7.40;59.50;;;5.73;65.48;100184.34;8389852;28;20036;-83
2022/01/06 01:50:33;;;;;;;0.98;0.70;;;7.40;59.50;;;5.74;65.63;100211.09;8377488;28;20046;-83
2022/01/06 01:54:55;;;;;;;1.88;1.20;;;7.40;59.30;;;5.60;65.51;100205.69;8403721;28;20540;-82
2022/01/06 01:59:17;;;;;;;0.90;0.82;;;7.30;58.80;;;5.40;65.55;100202.19;8395805;28;20127;-83
2022/01/06 02:03:38;;;;;;;1.95;0.85;;;7.20;58.70;;;5.39;65.52;100222.97;8397643;28;20567;-84
2022/01/06 02:08:01;;;;;;;3.13;0.70;;;7.10;58.40;;;5.29;65.10;100238.88;8370322;28;20117;-83
2022/01/06 02:12:31;;;;;;;0.75;0.70;;;7.00;58.40;;;5.21;65.43;100240.94;8398749;28;20465;-83
2022/01/06 02:16:54;;;;;;;1.17;0.60;;;6.90;58.40;;;5.05;65.22;100224.31;8404387;28;20116;-83
2022/01/06 02:21:16;;;;;;;1.15;1.05;;;6.80;58.50;;;5.12;65.51;100250.81;8391281;28;20127;-83
2022/01/06 02:25:38;;;;;;;1.60;0.70;;;6.70;58.50;;;5.00;65.55;100241.81;8396806;28;20127;-82
2022/01/06 02:30:00;;;;;;;1.23;0.85;;;6.70;58.50;;;5.05;64.98;100250.22;8353533;28;20037;-83
2022/01/06 02:34:21;;;;;;;2.65;0.95;;;6.60;58.40;;;5.03;64.72;100270.16;8388887;28;20337;-83
2022/01/06 02:38:43;;;;;;;1.33;1.00;;;6.60;58.50;;;4.48;65.13;100184.34;8394596;28;20116;-83
2022/01/06 02:43:07;;;;;;;1.55;0.95;;;6.60;57.70;;;4.84;65.18;100257.94;8406091;28;20123;-82
2022/01/06 02:47:28;;;;;;;2.72;0.95;;;6.40;58.10;;;4.93;64.76;100292.94;8389765;28;20131;-83
2022/01/06 02:51:51;;;;;;;3.75;0.90;;;6.60;58.20;;;4.78;65.05;100276.28;8396335;28;20437;-83
2022/01/06 02:56:12;;;;;;;2.22;1.02;;;6.50;58.20;;;4.90;64.98;100310.34;8368541;28;20120;-83
2022/01/06 03:00:35;;;;;;;2.88;1.10;;;6.50;58.40;;;4.74;65.12;100287.63;8409791;28;20123;-83
2022/01/06 03:04:57;;;;;;;3.40;1.02;;;6.50;58.40;;;4.89;64.98;100319.84;8408587;28;20557;-83
2022/01/06 03:09:26;;;;;;;3.10;1.20;;;6.50;58.30;;;4.87;65.31;100332.81;8381846;28;20462;-83
2022/01/06 03:13:47;;;;;;;1.33;0.90;;;6.40;57.90;;;4.85;65.17;100321.69;8384901;28;20123;-83
2022/01/06 03:18:09;;;;;;;2.08;1.05;;;6.50;58.10;;;4.83;64.67;100338.16;8389375;28;20561;-82
2022/01/06 03:22:31;;;;;;;1.75;1.40;;;6.50;57.50;;;4.79;64.67;100346.97;8403655;28;20115;-83
2022/01/06 03:26:52;;;;;;;3.40;0.93;;;6.50;57.60;;;4.69;64.73;100341.28;8389963;28;20123;-83
2022/01/06 03:31:14;;;;;;;0.77;0.77;;;6.50;57.40;;;4.72;64.97;100355.84;8387091;28;20041;-82
2022/01/06 03:35:36;;;;;;;2.70;1.10;;;6.50;57.50;;;4.65;64.51;100357.81;8392765;28;20522;-83
2022/01/06 03:39:59;;;;;;;0.93;0.73;;;6.40;56.80;;;4.73;64.58;100381.66;8395084;28;20123;-82
2022/01/06 03:44:21;;;;;;;2.58;0.93;;;6.40;57.10;;;4.61;64.91;100382.09;8391217;28;20037;-82
2022/01/06 03:48:42;;;;;;;1.65;0.80;;;6.40;57.10;;;4.56;64.47;100390.00;8399313;28;20100;-82
2022/01/06 03:53:04;;;;;;;1.92;0.75;;;6.30;56.70;;;4.54;64.70;100406.50;8377049;28;20119;-82
2022/01/06 03:57:26;;;;;;;0.73;0.70;;;6.30;56.90;;;4.49;64.47;100422.16;8401251;28;20568;-82
2022/01/06 04:01:47;;;;;;;0.70;0.70;;;6.30;56.70;;;4.46;64.36;100437.78;8406603;28;20123;-82
2022/01/06 04:06:10;;;;;;;2.10;1.00;;;6.30;56.80;;;4.53;64.32;100483.19;8380842;28;20132;-82
2022/01/06 04:10:32;;;;;;;0.60;0.60;;;6.20;57.00;;;4.46;64.28;100478.31;8386778;28;20043;-82
2022/01/06 04:14:53;;;;;;;3.85;0.90;;;6.20;56.90;;;4.39;64.12;100494.00;8389728;28;20120;-82
2022/01/06 04:19:15;;;;;;;3.08;0.90;;;6.10;56.30;;;4.43;64.52;100518.88;8386611;28;20160;-82
2022/01/06 04:23:37;;;;;;;0.68;0.60;;;6.30;56.80;;;4.29;64.49;100515.03;8390671;28;20464;-82
2022/01/06 04:27:58;;;;;;;3.40;0.98;;;6.10;56.50;;;4.23;64.24;100518.69;8421082;28;20111;-82
2022/01/06 04:32:20;;;;;;;1.88;0.82;;;6.00;56.40;;;4.27;64.38;100551.28;8369481;28;20124;-82
2022/01/06 04:36:48;;;;;;;0.82;0.75;;;5.90;56.30;;;4.15;64.09;100556.84;8400681;28;20115;-82
2022/01/06 04:41:09;;;;;;;0.98;0.77;;;5.90;55.60;;;4.02;64.28;100558.09;8420702;28;20119;-82
2022/01/06 04:45:31;;;;;;;10.27;0.80;;;5.80;55.90;;;4.00;63.86;100563.34;8387631;28;20123;-81
2022/01/06 04:49:53;;;;;;;2.80;0.82;;;5.80;56.20;;;3.94;64.17;100566.97;8388161;28;20503;-82
2022/01/06 04:54:15;;;;;;;0.63;0.60;;;5.70;56.30;;;3.93;64.11;100593.66;8374067;28;20119;-82
2022/01/06 04:58:36;;;;;;;2.00;0.80;;;5.70;56.30;;;3.84;63.98;100591.38;8391039;28;20511;-82
2022/01/06 05:02:58;;;;;;;0.47;0.47;;;5.60;56.00;;;3.87;63.91;100599.03;8381277;28;20131;-81
2022/01/06 05:07:20;;;;;;;0.57;0.57;;;5.60;56.50;;;3.77;63.82;100595.00;8363242;28;20379;-82
2022/01/06 05:11:44;;;;;;;3.78;0.70;;;5.60;56.30;;;3.74;63.89;100614.03;8358123;28;20025;-83
2022/01/06 05:16:06;;;;;;;1.73;0.82;;;5.50;55.70;;;3.69;63.96;100631.38;8377668;28;20132;-81
2022/01/06 05:20:28;;;;;;;0.50;0.50;;;5.50;56.20;;;3.66;63.61;100630.63;8363162;28;20047;-81
2022/01/06 05:24:50;;;;;;;1.35;0.73;;;5.40;56.20;;;3.57;63.77;100636.91;8362379;28;20405;-81
2022/01/06 05:29:13;;;;;;;0.52;0.52;;;5.40;56.40;;;3.57;63.65;100641.22;8362695;28;20025;-82
2022/01/06 05:33:35;;;;;;;3.08;1.23;;;5.40;56.00;;;3.46;63.51;100644.94;8371437;28;20035;-82
2022/01/06 05:37:56;;;;;;;1.27;0.80;;;5.30;56.10;;;3.41;63.55;100628.72;8364376;28;20036;-81
2022/01/06 05:42:18;;;;;;;0.85;0.68;;;5.30;56.40;;;3.41;63.61;100644.22;8381764;28;20115;-81
2022/01/06 05:46:40;;;;;;;0.40;0.40;;;5.20;56.30;;;3.46;63.65;100675.91;8384673;28;20032;-81
2022/01/06 05:51:02;;;;;;;0.50;0.50;;;5.20;56.40;;;3.49;63.72;100681.00;8391761;28;20484;-81
2022/01/06 05:55:23;;;;;;;0.98;0.77;;;5.30;56.40;;;3.54;63.50;100704.97;8390757;28;20043;-81
2022/01/06 05:59:45;;;;;;;0.93;0.60;;;5.20;56.50;;;3.41;63.71;100695.00;8408704;28;20622;-81
2022/01/06 06:04:07;;;;;;;0.93;0.90;;;5.20;56.40;;;3.44;63.52;100721.56;8377180;28;20037;-81
2022/01/06 06:08:29;;;;;;;1.20;0.70;;;5.20;56.50;;;3.38;63.54;100726.91;8385396;28;20174;-81
2022/01/06 06:12:52;;;;;;;0.95;0.43;;;5.10;56.50;;;3.40;63.84;100747.50;8389186;28;20136;-82
2022/01/06 06:17:14;;;;;;;1.15;0.77;;;5.10;56.50;;;3.40;63.64;100756.06;8373197;28;20123;-81
2022/01/06 06:21:36;;;;;;;1.00;0.60;;;5.10;56.60;;;3.28;63.86;100739.16;8399831;28;20126;-82
2022/01/06 06:25:58;;;;;;;0.70;0.60;;;5.10;56.70;;;3.21;63.62;100741.94;8384324;28;20127;-81
2022/01/06 06:30:19;;;;;;;0.95;0.80;;;5.10;56.60;;;3.21;63.85;100752.25;8389778;28;20565;-81
2022/01/06 06:34:41;;;;;;;1.73;0.95;;;5.00;56.60;;;3.24;63.66;100772.81;8378057;28;20116;-81
2022/01/06 06:39:04;;;;;;;2.17;0.80;;;5.00;56.70;;;3.29;63.67;100792.50;8375869;28;20127;-82
2022/01/06 06:43:25;;;;;;;1.10;0.70;;;5.00;56.60;;;3.13;63.77;100780.81;8382248;28;20123;-82
2022/01/06 06:47:47;;;;;;;1.27;0.73;;;5.00;56.70;;;3.26;63.87;100812.34;8405247;28;20315;-84
2022/01/06 06:52:09;;;;;;;0.90;0.70;;;5.00;56.70;;;3.09;63.67;100794.69;8395706;28;20124;-84
2022/01/06 06:56:31;;;;;;;2.10;0.90;;;4.90;56.70;;;2.92;63.70;100784.75;8414313;28;20123;-89
2022/01/06 07:00:52;;;;;;;1.10;0.90;;;4.80;56.70;;;3.06;63.70;100823.97;8381014;28;20127;-80
2022/01/06 07:05:15;;;;;;;4.70;1.00;;;4.90;56.70;;;3.12;63.55;100835.06;8378513;28;20152;-84
2022/01/06 07:09:37;;;;;;;1.30;0.80;;;4.80;56.80;;;3.07;63.29;100840.31;8381044;28;20121;-83
2022/01/06 07:13:59;;;;;;;1.77;1.00;;;4.80;56.90;;;2.98;63.58;100845.69;8390326;28;20123;-83
2022/01/06 07:18:21;;;;;;;0.80;0.80;;;4.80;56.90;;;3.05;63.67;100871.31;8387275;28;20123;-83
2022/01/06 07:22:42;;;;;;;1.73;1.13;;;4.70;56.90;;;2.93;63.62;100856.09;8392996;28;20136;-83
2022/01/06 07:27:04;;;;;;;0.70;0.68;;;4.70;57.00;;;2.95;64.01;100869.81;8371680;28;20119;-80
2022/01/06 07:31:26;;;;;;;1.60;1.10;;;4.80;57.00;;;3.02;63.58;100886.81;8401930;28;20032;-83
2022/01/06 07:35:48;;;;;;;0.80;0.70;;;4.80;57.10;;;3.00;63.59;100903.25;8388452;28;20466;-82
2022/01/06 07:40:10;;;;;;;2.55;1.15;;;4.70;57.10;;;3.00;63.65;100923.88;8384000;28;20477;-83
2022/01/06 07:44:32;;;;;;;2.42;0.75;;;4.70;57.10;;;2.88;63.92;100904.34;8391252;28;20036;-83
2022/01/06 07:48:57;;;;;;;1.35;0.77;;;4.80;57.20;;;2.97;63.66;100929.09;8382355;28;20039;-83
2022/01/06 07:53:18;;;;;;;1.27;0.90;;;4.60;57.10;;;2.98;63.78;100939.38;8381720;28;20462;-83
2022/01/06 07:57:40;;;;;;;1.48;0.88;;;4.90;57.30;;;2.81;63.87;100902.78;8394338;28;20374;-86
2022/01/06 08:02:02;;;;;;;1.50;0.82;;;4.70;57.30;;;2.96;63.89;100942.88;8393951;28;20127;-84
2022/01/06 08:06:24;;;;;;;1.63;1.00;;;4.70;57.30;;;2.76;64.13;100920.91;8387157;28;20134;-83
2022/01/06 08:10:45;;;;;;;2.67;1.08;;;4.70;57.40;;;2.84;64.07;100938.81;8399766;28;20027;-84
2022/01/06 08:15:08;;;;;;;2.58;1.02;;;4.60;57.40;;;2.84;64.05;100944.81;8382082;28;20504;-84
2022/01/06 08:19:29;;;;;;;1.52;1.00;;;4.70;57.50;;;2.87;64.22;100962.81;8404914;28;20032;-84
2022/01/06 08:23:51;;;;;;;1.45;1.20;;;4.60;57.50;;;2.89;64.13;100962.78;8393734;28;20119;-84
2022/01/06 08:28:13;;;;;;;1.40;0.90;;;4.70;57.60;;;2.83;63.90;100957.72;8411308;28;20584;-84
2022/01/06 08:32:35;;;;;;;1.83;0.95;;;4.70;57.60;;;2.97;64.32;100984.13;8396829;28;20100;-84
2022/01/06 08:36:57;;;;;;;2.30;1.02;;;4.70;57.70;;;2.91;64.06;100973.91;8415710;28;20122;-84
2022/01/06 08:41:19;;;;;;;1.48;1.05;;;4.70;57.70;;;2.93;64.04;100976.47;8371009;28;20049;-85
2022/01/06 08:45:40;;;;;;;2.95;1.73;;;4.70;57.70;;;2.92;64.33;100978.19;8391853;28;20123;-84
2022/01/06 08:50:03;;;;;;;9.20;2.00;;;4.70;57.70;;;2.99;64.22;100990.09;8399082;28;20035;-84
2022/01/06 08:54:25;;;;;;;1.35;0.95;;;4.80;57.70;;;2.88;64.14;100967.06;8391724;28;20123;-84
2022/01/06 08:58:46;;;;;;;1.25;1.05;;;4.80;57.80;;;3.01;63.99;100988.31;8381089;28;20032;-85
2022/01/06 09:03:09;;;;;;;2.42;1.00;;;4.80;57.80;;;3.11;64.46;101004.47;8410858;28;20123;-84
2022/01/06 09:07:30;;;;;;;4.13;1.83;;;4.90;57.90;;;3.17;64.24;101019.00;8393958;28;20040;-84
2022/01/06 09:11:52;;;;;;;0.77;0.75;;;4.90;57.80;;;3.17;64.03;101024.16;8396905;28;20038;-85
2022/01/06 09:16:14;;;;;;;2.78;0.90;;;4.90;57.90;;;3.16;64.49;101014.69;8378319;28;20136;-85
2022/01/06 09:20:35;;;;;;;2.85;1.50;;;4.90;57.80;;;3.21;64.34;101031.78;8397986;28;20123;-85
2022/01/06 09:24:57;;;;;;;2.92;1.08;;;4.90;57.80;;;3.16;64.09;101025.88;8409015;28;20176;-84
2022/01/06 09:29:19;;;;;;;4.20;1.50;;;5.10;57.70;;;3.26;64.39;101044.59;8367932;28;20391;-83
2022/01/06 09:33:41;;;;;;;3.20;1.20;;;5.10;57.70;;;3.39;64.28;101051.22;8382884;28;20047;-85
2022/01/06 09:38:03;;;;;;;1.75;1.02;;;5.20;57.80;;;3.42;64.24;101055.47;8389704;28;20123;-84
2022/01/06 09:42:25;;;;;;;2.10;1.20;;;5.20;57.80;;;3.59;64.38;101066.28;8389169;28;20130;-84
2022/01/06 09:46:47;;;;;;;1.42;1.30;;;5.30;57.70;;;3.59;64.35;101068.88;8400499;28;20120;-84
2022/01/06 09:51:10;;;;;;;2.38;0.93;;;5.40;57.80;;;3.44;64.33;101044.22;8373227;28;20028;-85
2022/01/06 09:55:32;;;;;;;1.10;1.00;;;5.30;57.50;;;3.76;64.42;101100.38;8383252;28;20119;-83
2022/01/06 09:59:53;;;;;;;7.60;1.15;;;5.50;57.60;;;3.57;64.44;101059.50;8393712;28;20514;-84
2022/01/06 10:04:28;;;;;;;3.83;1.15;;;5.50;57.60;;;3.88;64.14;101106.16;8402995;28;20140;-84
2022/01/06 10:09:05;;;;;;;4.28;1.33;;;5.40;57.40;;;3.92;64.39;101103.50;8400512;28;20127;-84
2022/01/06 10:13:31;;;;;;;3.75;1.17;;;5.70;57.40;;;4.07;64.34;101116.94;8385077;28;20119;-84
2022/01/06 10:17:55;;;;;;;1.83;1.30;;;5.70;57.40;;;4.19;64.53;101130.44;8387351;28;20553;-84
2022/01/06 10:22:19;;;;;;;1.27;1.05;;;5.80;57.50;;;4.28;64.43;101137.16;8384219;28;21255;-85
2022/01/06 10:27:04;;;;;;;0.80;0.80;;;6.00;57.40;;;4.30;64.39;101132.81;8376270;28;20119;-85
2022/01/06 10:31:30;;;;;;;3.50;1.00;;;6.10;57.40;;;4.42;64.41;101144.59;8391218;28;20035;-85
2022/01/06 10:35:52;;;;;;;0.90;0.88;;;6.20;57.30;;;4.49;63.90;101160.81;8399768;28;20119;-84
2022/01/06 10:40:25;;;;;;;3.45;1.63;;;6.20;57.00;;;4.52;64.08;101166.78;8386651;28;20127;-83
2022/01/06 10:44:50;;;;;;;1.23;1.10;;;6.30;56.70;;;4.54;64.11;101169.34;8399980;28;20127;-83
2022/01/06 10:49:16;;;;;;;1.60;1.03;;;6.30;56.90;;;4.57;64.06;101158.91;8398027;28;20489;-82
2022/01/06 10:53:49;;;;;;;0.85;0.80;;;6.40;56.90;;;4.54;64.11;101159.00;8386164;28;21257;-86
2022/01/06 10:58:18;;;;;;;11.40;1.42;;;6.40;56.00;;;4.56;64.20;101167.53;8360865;28;20486;-84
2022/01/06 11:02:39;;;;;;;2.70;0.75;;;6.30;55.80;;;4.66;64.11;101189.72;8387286;28;20127;-80
2022/01/06 11:07:01;;;;;;;2.53;1.30;;;6.30;55.90;;;4.41;63.67;101146.31;8391890;28;20126;-81
2022/01/06 11:12:26;;;;;;;1.60;1.00;;;6.40;56.10;;;4.61;63.91;101184.66;8380596;28;20031;-81
2022/01/06 11:16:17;;;;;;;1.95;0.80;;;6.50;56.00;;;4.66;63.74;101189.72;8372950;28;20054;-81
2022/01/06 11:20:39;;;;;;;0.90;0.90;;;6.50;55.70;;;4.74;63.94;101200.75;8384188;28;20104;-81
2022/01/06 11:25:03;;;;;;;1.20;0.93;;;6.50;56.10;;;4.72;63.71;101197.34;8409237;28;20123;-85
2022/01/06 11:29:28;;;;;;;1.50;0.75;;;6.60;55.60;;;4.80;63.44;101220.44;8381905;28;20392;-83
2022/01/06 11:33:53;;;;;;;2.05;1.13;;;6.60;55.80;;;4.58;63.62;101181.28;8389384;28;20896;-84
2022/01/06 11:38:17;;;;;;;0.93;0.83;;;6.60;55.70;;;4.80;63.58;101213.53;8389589;28;20127;-83
2022/01/06 11:42:39;;;;;;;1.02;0.90;;;6.60;55.70;;;4.84;63.56;101228.09;8396184;28;20552;-86
2022/01/06 11:47:04;;;;;;;2.95;1.00;;;6.60;55.30;;;4.88;63.46;101237.47;8379080;28;20116;-84
2022/01/06 11:51:32;;;;;;;2.05;1.00;;;6.70;55.40;;;4.88;63.08;101242.66;8381375;28;20044;-86
2022/01/06 11:55:54;;;;;;;1.95;0.77;;;6.60;55.20;;;4.88;63.39;101253.00;8366524;28;20119;-86
2022/01/06 12:00:25;;;;;;;1.00;0.75;;;6.70;55.40;;;4.24;63.02;101151.03;8407314;28;20045;-86
2022/01/06 12:04:59;;;;;;;1.40;1.10;;;6.70;54.80;;;4.92;63.20;101261.56;8374524;28;20572;-87
2022/01/06 12:09:23;;;;;;;1.30;1.20;;;6.60;54.60;;;4.99;63.22;101270.88;8396325;28;20042;-86
2022/01/06 12:13:46;;;;;;;1.95;1.48;;;6.80;54.90;;;4.99;63.15;101272.63;8391632;28;20123;-86
2022/01/06 12:18:08;;;;;;;2.53;1.20;;;6.70;55.10;;;5.01;63.31;101270.84;8399413;28;20050;-86
2022/01/06 12:22:30;;;;;;;1.75;1.30;;;6.80;55.00;;;4.94;63.05;101257.22;8374962;28;20130;-86
2022/01/06 12:26:53;;;;;;;1.85;1.00;;;7.00;54.00;;;5.04;62.92;101274.22;8407962;28;20568;-87
2022/01/06 12:31:27;;;;;;;2.72;0.90;;;6.80;54.30;;;4.98;62.80;101258.00;8375348;28;20039;-86
2022/01/06 12:35:53;;;;;;;4.45;0.80;;;6.80;54.10;;;5.10;62.69;101278.38;8388047;28;20400;-86
2022/01/06 12:40:14;;;;;;;0.98;0.88;;;6.90;54.30;;;5.16;62.89;101286.03;8383024;28;20131;-86
2022/01/06 12:44:36;;;;;;;2.00;1.58;;;6.90;54.00;;;5.19;62.76;101282.53;8390424;28;20040;-86
2022/01/06 12:48:58;;;;;;;1.67;0.80;;;7.00;54.40;;;5.18;62.55;101286.81;8388041;28;20119;-86
2022/01/06 12:53:29;;;;;;;0.60;0.60;;;7.00;54.30;;;5.20;62.28;101292.81;8374055;28;20122;-86
2022/01/06 12:57:51;;;;;;;3.35;0.95;;;7.00;53.50;;;5.10;62.42;101278.38;8396521;28;20047;-86
2022/01/06 13:02:15;;;;;;;1.73;1.00;;;7.00;53.50;;;5.14;61.96;101276.59;8385697;28;20040;-85
2022/01/06 13:06:40;;;;;;;1.02;0.85;;;7.00;53.80;;;5.21;61.93;101304.03;8392955;28;20167;-85
2022/01/06 13:11:07;;;;;;;1.98;1.17;;;7.00;53.30;;;5.24;62.30;101307.41;8361622;28;20032;-85
2022/01/06 13:15:34;;;;;;;1.17;0.82;;;7.10;53.50;;;5.21;61.80;101307.50;8363565;28;20045;-85
2022/01/06 13:20:04;;;;;;;0.57;0.50;;;7.10;53.50;;;5.33;61.85;101324.47;8372818;28;20055;-85
2022/01/06 13:24:34;;;;;;;0.88;0.73;;;7.00;53.30;;;5.30;61.72;101329.72;8361007;28;20509;-85
2022/01/06 13:28:59;;;;;;;1.60;0.68;;;7.00;53.20;;;5.21;61.82;101317.84;8386469;28;20408;-85
2022/01/06 13:33:26;;;;;;;2.65;0.70;;;7.00;53.50;;;5.14;61.89;101308.50;8347113;28;20798;-85
2022/01/06 13:37:48;;;;;;;3.03;1.02;;;7.10;53.40;;;5.27;61.97;101332.38;8372709;28;20051;-85
2022/01/06 13:42:31;;;;;;;2.80;1.17;;;7.10;53.40;;;5.22;61.51;101322.13;8373792;28;20044;-85
2022/01/06 13:47:10;;;;;;;2.45;1.00;;;7.10;53.50;;;5.05;61.42;101290.59;8373589;28;20044;-85
2022/01/06 13:51:31;;;;;;;2.00;0.90;;;7.10;53.40;;;5.12;61.53;101312.00;8345823;28;20040;-84
2022/01/06 13:56:19;;;;;;;0.57;0.57;;;7.10;53.70;;;5.12;61.87;101327.56;8359496;28;20443;-85
2022/01/06 14:00:41;;;;;;;1.60;0.80;;;7.10;52.50;;;5.31;61.76;101365.91;8402052;28;20470;-85
2022/01/06 14:05:09;;;;;;;1.90;0.80;;;7.10;53.30;;;5.19;61.23;101353.28;8379063;28;20033;-86
2022/01/06 14:09:30;;;;;;;1.63;0.73;;;7.00;53.40;;;5.21;61.88;101366.16;8369920;28;20117;-85
2022/01/06 14:13:52;;;;;;;1.02;0.60;;;7.00;53.30;;;5.07;61.65;101349.19;8408684;28;20473;-86
2022/01/06 14:18:15;;;;;;;0.60;0.57;;;7.00;53.20;;;5.22;61.41;101380.81;8373813;28;20041;-85
2022/01/06 14:22:36;;;;;;;1.10;0.60;;;7.00;53.20;;;5.21;61.12;101381.69;8399572;28;20127;-85
2022/01/06 14:26:58;;;;;;;1.35;0.90;;;6.90;53.10;;;5.19;61.33;101379.16;8401436;28;20040;-86
2022/01/06 14:31:20;;;;;;;0.60;0.60;;;6.90;53.10;;;5.15;61.55;101377.50;8397308;28;20035;-85
2022/01/06 14:35:42;;;;;;;1.05;0.60;;;6.80;53.20;;;4.98;60.99;101364.09;8409140;28;20470;-85
2022/01/06 14:40:05;;;;;;;0.82;0.65;;;6.90;53.40;;;4.94;61.05;101358.16;8400133;28;20512;-85
2022/01/06 14:44:26;;;;;;;0.60;0.60;;;6.90;53.20;;;4.86;61.27;101355.72;8403099;28;20549;-85
2022/01/06 14:48:48;;;;;;;0.50;0.50;;;6.80;53.50;;;4.87;61.21;101354.81;8380713;28;20122;-86
2022/01/06 14:53:10;;;;;;;1.25;0.65;;;6.80;53.70;;;4.93;61.09;101379.72;8376343;28;20532;-84
2022/01/06 14:57:31;;;;;;;2.53;0.93;;;6.70;53.70;;;4.88;61.26;101384.13;8376271;28;20590;-85
2022/01/06 15:01:53;;;;;;;7.82;1.42;;;6.70;53.70;;;4.81;61.34;101386.00;8377986;28;20047;-84
2022/01/06 15:06:15;;;;;;;3.38;1.52;;;6.70;53.90;;;4.80;61.17;101401.56;8378196;28;20045;-84
2022/01/06 15:10:37;;;;;;;4.47;1.63;;;6.60;54.00;;;4.75;61.30;101412.03;8357386;28;20847;-85
2022/01/06 15:14:58;;;;;;;3.03;1.60;;;6.60;54.00;;;4.73;60.94;101418.94;8366665;28;20040;-84
2022/01/06 15:19:20;;;;;;;3.30;2.03;;;6.50;53.90;;;4.68;61.09;101427.69;8370360;28;20047;-84
2022/01/06 15:23:42;;;;;;;2.22;1.58;;;6.40;53.90;;;4.58;60.81;101437.34;8383864;28;20111;-84
2022/01/06 15:28:04;;;;;;;2.55;1.10;;;6.20;53.90;;;4.52;61.25;101445.22;8387959;28;20046;-85
2022/01/06 15:32:25;;;;;;;3.00;1.42;;;6.30;54.20;;;4.36;61.27;101442.91;8374594;28;20034;-85
2022/01/06 15:36:47;;;;;;;2.58;1.60;;;6.00;54.20;;;4.41;61.23;101474.72;8378319;28;20048;-85
2022/01/06 15:41:09;;;;;;;4.05;1.98;;;6.00;54.30;;;4.34;61.11;101480.84;8396388;28;20685;-86
2022/01/06 15:45:31;;;;;;;3.60;2.65;;;6.10;54.40;;;4.26;61.12;101474.13;8402564;28;20050;-86
2022/01/06 15:49:52;;;;;;;3.83;2.50;;;6.00;54.50;;;4.21;60.87;101479.34;8378710;28;20039;-87
2022/01/06 15:54:17;;;;;;;4.68;2.85;;;5.90;54.50;;;4.10;61.34;101468.34;8384226;28;20044;-86
2022/01/06 15:58:40;;;;;;;4.77;3.50;;;5.90;54.50;;;3.94;61.11;101463.44;8387456;28;20408;-86
2022/01/06 16:07:45;;;;;;;10.85;5.93;;;5.70;54.40;;;3.86;61.16;101474.75;8383082;28;20054;-87
2022/01/06 16:12:10;;;;;;;8.05;4.72;;;5.60;54.60;;;3.86;61.11;101495.41;8360917;28;20153;-83
2022/01/06 16:16:32;;;;;;;4.60;4.10;;;5.40;54.40;;;3.76;61.10;101486.97;8384782;28;20508;-83
2022/01/06 16:20:55;;;;;;;6.72;4.10;;;5.40;54.50;;;3.77;61.21;101493.84;8346240;28;20063;-85
2022/01/06 16:25:20;;;;;;;;;;;5.50;54.70;;;3.72;61.11;101500.78;8382302;28;20036;-84
2022/01/06 16:29:44;;;;;;;6.03;4.63;;;5.40;54.90;;;3.65;61.28;101504.34;8369874;28;19944;-84
2022/01/06 16:34:06;;;;;;;8.38;4.82;;;5.40;54.80;;;3.48;61.27;101495.13;8393462;28;20050;-84
2022/01/06 16:38:27;;;;;;;10.50;5.97;;;5.20;54.80;;;3.49;61.43;101498.53;8363418;28;20040;-84
2022/01/06 16:42:49;;;;;;;11.98;8.52;;;5.20;54.90;;;3.42;61.21;101495.16;8379427;28;20404;-84
2022/01/06 16:47:11;;;;;;;8.27;5.50;;;5.20;54.80;;;3.33;61.44;101490.16;8386270;28;20044;-84
2022/01/06 16:51:33;;;;;;;7.53;4.38;;;5.20;54.90;;;3.26;61.33;101480.75;8373066;28;20047;-83
2022/01/06 16:55:55;;;;;;;4.72;3.85;;;5.10;54.80;;;3.34;61.32;101507.31;8382429;28;20043;-84
2022/01/06 17:00:17;;;;;;;8.05;4.88;;;5.00;54.80;;;3.32;60.95;101515.09;8389740;28;20044;-83
2022/01/06 17:04:39;;;;;;;36.53;16.05;;;5.00;54.90;;;3.21;61.39;101513.50;8397054;28;20048;-84
2022/01/06 17:09:01;;;;;;;95.65;37.17;;;4.90;54.80;;;3.12;61.29;101503.31;8390347;28;20040;-84
2022/01/06 17:13:22;;;;;;;71.97;27.65;;;5.10;55.00;;;3.12;61.33;101522.22;8366858;28;20505;-83
2022/01/06 17:17:44;;;;;;;45.25;18.20;;;4.80;54.90;;;3.06;61.28;101522.31;8384438;28;20042;-84
2022/01/06 17:22:06;;;;;;;22.52;10.32;;;4.80;54.90;;;3.03;61.30;101528.34;8379730;28;20047;-83
2022/01/06 17:26:28;;;;;;;20.48;9.07;;;4.70;55.00;;;2.94;61.43;101514.69;8365175;28;20051;-84
2022/01/06 17:30:50;;;;;;;15.23;7.57;;;4.60;55.00;;;2.95;61.20;101532.75;8365026;28;20495;-87
2022/01/06 17:35:12;;;;;;;13.27;5.93;;;4.70;55.00;;;2.90;61.54;101543.97;8379357;28;20063;-86
2022/01/06 17:39:33;;;;;;;14.50;5.88;;;4.60;55.00;;;2.89;61.20;101543.13;8391095;28;20044;-86
2022/01/06 17:43:56;;;;;;;13.45;5.20;;;4.60;55.10;;;2.87;60.92;101537.13;8388182;28;20042;-86
2022/01/06 17:48:18;;;;;;;14.27;6.05;;;4.60;55.20;;;2.80;61.38;101518.25;8355291;28;20909;-86
2022/01/06 17:52:39;;;;;;;16.42;5.85;;;4.80;55.40;;;2.68;61.27;101514.97;8370895;28;20033;-86
2022/01/06 17:57:02;;;;;;;15.25;6.68;;;4.60;55.60;;;2.71;61.27;101520.94;8355332;28;20041;-86
2022/01/06 18:01:24;;;;;;;14.68;5.85;;;4.60;55.30;;;2.83;61.53;101530.28;8359502;28;20033;-86
2022/01/06 18:05:53;;;;;;;13.15;6.40;;;4.50;55.30;;;2.82;61.79;101541.47;8345536;28;20040;-87
2022/01/06 18:14:56;;;;;;;11.27;5.47;;;4.50;55.40;;;2.65;61.24;101521.00;8367063;28;20043;-85
2022/01/06 18:19:18;;;;;;;20.17;6.93;;;4.40;55.40;;;2.66;61.54;101533.88;8358775;28;20032;-85
2022/01/06 18:23:40;;;;;;;12.50;6.82;;;4.50;55.40;;;2.65;61.46;101526.16;8388024;28;20037;-86
2022/01/06 18:28:02;;;;;;;13.05;7.20;;;4.40;55.30;;;2.65;61.33;101531.31;8382205;28;20038;-86
2022/01/06 18:32:23;;;;;;;13.27;6.40;;;4.20;55.30;;;2.63;61.30;101528.75;8354095;28;20029;-86
2022/01/06 18:36:45;;;;;;;9.85;5.82;;;4.40;55.50;;;2.61;61.69;101521.91;8389219;28;20040;-85
2022/01/06 18:41:07;;;;;;;14.82;8.05;;;4.40;55.60;;;2.57;61.59;101515.91;8351345;28;20050;-85
2022/01/06 18:45:29;;;;;;;13.32;7.78;;;4.40;55.50;;;2.57;61.51;101523.66;8391099;28;20037;-85
2022/01/06 18:49:50;;;;;;;10.13;6.13;;;4.30;55.60;;;2.62;61.43;101539.94;8363172;28;20483;-84
2022/01/06 18:54:13;;;;;;;10.40;6.18;;;4.30;55.60;;;2.62;61.92;101547.69;8393928;28;20048;-85